Terminal Aerodrome Forecast
Issued by NWS

Current Version | Previous Version | Text Only | Print | Product List | Glossary On
Versions: 1 2 3 4 5 6 7 8 9 10 11 12
000
FTUS46 KPDT 171100
TAFPSC
TAF
KPSC 171120Z 1712/1812 22008KT P6SM VCSH BKN060 OVC100
     FM171800 25012KT P6SM -RA BKN050 OVC080
     FM172200 25012KT P6SM -RA BKN040 BKN080
     FM180400 25015G25KT P6SM BKN050 BKN100=

USA.gov is the U.S. government's official web portal to all federal, state and local government web resources and services.